sensor_id;sensor_type;location;lat;lon;timestamp;P1;durP1;ratioP1;P2;durP2;ratioP2
75218;SDS011;63801;49.414;19.474;2023-08-07T00:00:26;2.28;;;1.70;;
75218;SDS011;63801;49.414;19.474;2023-08-07T00:02:26;2.40;;;1.77;;
75218;SDS011;63801;49.414;19.474;2023-08-07T00:04:26;2.17;;;1.55;;
75218;SDS011;63801;49.414;19.474;2023-08-07T00:06:27;3.90;;;1.85;;
75218;SDS011;63801;49.414;19.474;2023-08-07T00:08:28;2.10;;;1.65;;
75218;SDS011;63801;49.414;19.474;2023-08-07T00:10:28;2.85;;;2.00;;
75218;SDS011;63801;49.414;19.474;2023-08-07T00:12:30;2.72;;;1.77;;
75218;SDS011;63801;49.414;19.474;2023-08-07T00:14:30;3.92;;;1.90;;
75218;SDS011;63801;49.414;19.474;2023-08-07T00:16:30;5.55;;;2.05;;
75218;SDS011;63801;49.414;19.474;2023-08-07T00:18:31;3.83;;;1.90;;
75218;SDS011;63801;49.414;19.474;2023-08-07T00:20:31;2.95;;;1.80;;
75218;SDS011;63801;49.414;19.474;2023-08-07T00:22:31;4.13;;;1.70;;
75218;SDS011;63801;49.414;19.474;2023-08-07T00:24:32;2.50;;;1.70;;
75218;SDS011;63801;49.414;19.474;2023-08-07T00:26:32;2.72;;;1.80;;
75218;SDS011;63801;49.414;19.474;2023-08-07T00:28:33;2.97;;;2.13;;
75218;SDS011;63801;49.414;19.474;2023-08-07T00:30:33;4.28;;;2.03;;
75218;SDS011;63801;49.414;19.474;2023-08-07T00:32:33;2.30;;;1.60;;
75218;SDS011;63801;49.414;19.474;2023-08-07T00:34:34;3.65;;;1.73;;
75218;SDS011;63801;49.414;19.474;2023-08-07T00:36:34;2.70;;;1.90;;
75218;SDS011;63801;49.414;19.474;2023-08-07T00:38:34;5.50;;;1.83;;
75218;SDS011;63801;49.414;19.474;2023-08-07T00:40:38;4.50;;;1.70;;
75218;SDS011;63801;49.414;19.474;2023-08-07T00:42:39;5.80;;;2.38;;
75218;SDS011;63801;49.414;19.474;2023-08-07T00:44:39;3.15;;;2.13;;
75218;SDS011;63801;49.414;19.474;2023-08-07T00:46:40;5.13;;;2.15;;
75218;SDS011;63801;49.414;19.474;2023-08-07T00:48:41;3.30;;;2.17;;
75218;SDS011;63801;49.414;19.474;2023-08-07T00:50:42;3.95;;;2.30;;
75218;SDS011;63801;49.414;19.474;2023-08-07T00:52:43;3.95;;;2.38;;
75218;SDS011;63801;49.414;19.474;2023-08-07T00:54:44;3.17;;;2.20;;
75218;SDS011;63801;49.414;19.474;2023-08-07T00:56:45;5.38;;;2.35;;
75218;SDS011;63801;49.414;19.474;2023-08-07T00:58:46;3.55;;;2.20;;
75218;SDS011;63801;49.414;19.474;2023-08-07T01:00:46;5.15;;;2.33;;
75218;SDS011;63801;49.414;19.474;2023-08-07T01:02:47;2.97;;;2.15;;
75218;SDS011;63801;49.414;19.474;2023-08-07T01:04:50;3.15;;;2.08;;
75218;SDS011;63801;49.414;19.474;2023-08-07T01:06:51;5.32;;;2.38;;
75218;SDS011;63801;49.414;19.474;2023-08-07T01:08:51;4.82;;;2.40;;
75218;SDS011;63801;49.414;19.474;2023-08-07T01:10:59;4.35;;;2.80;;
75218;SDS011;63801;49.414;19.474;2023-08-07T01:15:32;4.03;;;2.55;;
75218;SDS011;63801;49.414;19.474;2023-08-07T01:17:35;5.65;;;2.60;;
75218;SDS011;63801;49.414;19.474;2023-08-07T01:19:35;3.92;;;2.72;;
75218;SDS011;63801;49.414;19.474;2023-08-07T01:21:36;4.75;;;2.33;;
75218;SDS011;63801;49.414;19.474;2023-08-07T01:23:37;4.13;;;2.83;;
75218;SDS011;63801;49.414;19.474;2023-08-07T01:25:37;5.63;;;2.92;;
75218;SDS011;63801;49.414;19.474;2023-08-07T01:30:22;3.97;;;2.55;;
75218;SDS011;63801;49.414;19.474;2023-08-07T01:32:40;3.45;;;2.50;;
75218;SDS011;63801;49.414;19.474;2023-08-07T01:34:47;4.75;;;2.60;;
75218;SDS011;63801;49.414;19.474;2023-08-07T01:36:49;5.20;;;2.40;;
75218;SDS011;63801;49.414;19.474;2023-08-07T01:38:51;5.00;;;2.55;;
75218;SDS011;63801;49.414;19.474;2023-08-07T01:40:53;3.85;;;2.60;;
75218;SDS011;63801;49.414;19.474;2023-08-07T01:42:54;4.72;;;2.38;;
75218;SDS011;63801;49.414;19.474;2023-08-07T01:44:55;3.92;;;2.50;;
75218;SDS011;63801;49.414;19.474;2023-08-07T01:46:55;5.05;;;2.60;;
75218;SDS011;63801;49.414;19.474;2023-08-07T01:48:56;5.40;;;2.33;;
75218;SDS011;63801;49.414;19.474;2023-08-07T01:50:56;6.20;;;2.80;;
75218;SDS011;63801;49.414;19.474;2023-08-07T01:52:56;3.80;;;2.47;;
75218;SDS011;63801;49.414;19.474;2023-08-07T01:54:57;3.75;;;2.67;;
75218;SDS011;63801;49.414;19.474;2023-08-07T01:56:57;7.38;;;2.53;;
75218;SDS011;63801;49.414;19.474;2023-08-07T01:58:57;3.10;;;2.20;;
75218;SDS011;63801;49.414;19.474;2023-08-07T02:00:58;4.43;;;2.38;;
75218;SDS011;63801;49.414;19.474;2023-08-07T02:02:58;3.53;;;2.10;;
75218;SDS011;63801;49.414;19.474;2023-08-07T02:04:58;4.20;;;2.50;;
75218;SDS011;63801;49.414;19.474;2023-08-07T02:06:59;3.40;;;2.30;;
75218;SDS011;63801;49.414;19.474;2023-08-07T02:08:59;3.92;;;2.42;;
75218;SDS011;63801;49.414;19.474;2023-08-07T02:10:59;3.40;;;2.22;;
75218;SDS011;63801;49.414;19.474;2023-08-07T02:13:01;4.53;;;2.50;;
75218;SDS011;63801;49.414;19.474;2023-08-07T02:15:01;3.80;;;2.10;;
75218;SDS011;63801;49.414;19.474;2023-08-07T02:17:02;3.45;;;2.30;;
75218;SDS011;63801;49.414;19.474;2023-08-07T02:19:03;2.97;;;2.15;;
75218;SDS011;63801;49.414;19.474;2023-08-07T02:21:03;3.35;;;2.28;;
75218;SDS011;63801;49.414;19.474;2023-08-07T02:23:03;2.92;;;2.08;;
75218;SDS011;63801;49.414;19.474;2023-08-07T02:25:04;5.00;;;2.35;;
75218;SDS011;63801;49.414;19.474;2023-08-07T02:27:05;3.75;;;2.10;;
75218;SDS011;63801;49.414;19.474;2023-08-07T02:29:05;4.60;;;2.50;;
75218;SDS011;63801;49.414;19.474;2023-08-07T02:31:09;3.45;;;2.10;;
75218;SDS011;63801;49.414;19.474;2023-08-07T02:33:09;2.88;;;2.03;;
75218;SDS011;63801;49.414;19.474;2023-08-07T02:35:10;3.22;;;2.13;;
75218;SDS011;63801;49.414;19.474;2023-08-07T02:37:11;7.05;;;2.08;;
75218;SDS011;63801;49.414;19.474;2023-08-07T02:39:13;3.00;;;1.85;;
75218;SDS011;63801;49.414;19.474;2023-08-07T02:41:13;3.33;;;1.85;;
75218;SDS011;63801;49.414;19.474;2023-08-07T02:43:13;2.30;;;1.70;;
75218;SDS011;63801;49.414;19.474;2023-08-07T02:45:14;2.60;;;1.83;;
75218;SDS011;63801;49.414;19.474;2023-08-07T02:47:14;3.10;;;2.30;;
75218;SDS011;63801;49.414;19.474;2023-08-07T02:49:15;2.63;;;1.73;;
75218;SDS011;63801;49.414;19.474;2023-08-07T02:51:15;2.13;;;1.60;;
75218;SDS011;63801;49.414;19.474;2023-08-07T02:53:15;1.67;;;1.42;;
75218;SDS011;63801;49.414;19.474;2023-08-07T02:55:15;2.63;;;1.20;;
75218;SDS011;63801;49.414;19.474;2023-08-07T02:57:16;2.17;;;1.42;;
75218;SDS011;63801;49.414;19.474;2023-08-07T02:59:16;1.85;;;1.00;;
75218;SDS011;63801;49.414;19.474;2023-08-07T03:01:16;1.83;;;1.23;;
75218;SDS011;63801;49.414;19.474;2023-08-07T03:03:17;4.18;;;1.00;;
75218;SDS011;63801;49.414;19.474;2023-08-07T03:05:18;2.05;;;0.90;;
75218;SDS011;63801;49.414;19.474;2023-08-07T03:07:18;2.13;;;0.90;;
75218;SDS011;63801;49.414;19.474;2023-08-07T03:09:18;2.35;;;0.80;;
75218;SDS011;63801;49.414;19.474;2023-08-07T03:11:19;1.80;;;0.90;;
75218;SDS011;63801;49.414;19.474;2023-08-07T03:13:19;2.17;;;0.90;;
75218;SDS011;63801;49.414;19.474;2023-08-07T03:15:19;1.40;;;0.90;;
75218;SDS011;63801;49.414;19.474;2023-08-07T03:17:20;1.00;;;0.77;;
75218;SDS011;63801;49.414;19.474;2023-08-07T03:19:20;1.40;;;0.90;;
75218;SDS011;63801;49.414;19.474;2023-08-07T03:21:21;1.10;;;0.98;;
75218;SDS011;63801;49.414;19.474;2023-08-07T03:23:22;1.05;;;0.70;;
75218;SDS011;63801;49.414;19.474;2023-08-07T03:25:23;1.10;;;0.90;;
75218;SDS011;63801;49.414;19.474;2023-08-07T03:27:23;1.20;;;0.70;;
75218;SDS011;63801;49.414;19.474;2023-08-07T03:29:23;1.40;;;0.80;;
75218;SDS011;63801;49.414;19.474;2023-08-07T03:31:24;1.10;;;0.82;;
75218;SDS011;63801;49.414;19.474;2023-08-07T03:33:24;1.98;;;0.68;;
75218;SDS011;63801;49.414;19.474;2023-08-07T03:35:24;0.75;;;0.70;;
75218;SDS011;63801;49.414;19.474;2023-08-07T03:37:25;1.42;;;0.80;;
75218;SDS011;63801;49.414;19.474;2023-08-07T03:39:25;1.00;;;0.80;;
75218;SDS011;63801;49.414;19.474;2023-08-07T03:41:25;1.80;;;0.80;;
75218;SDS011;63801;49.414;19.474;2023-08-07T03:43:26;1.13;;;0.63;;
75218;SDS011;63801;49.414;19.474;2023-08-07T03:45:27;1.05;;;0.70;;
75218;SDS011;63801;49.414;19.474;2023-08-07T03:47:27;2.42;;;0.88;;
75218;SDS011;63801;49.414;19.474;2023-08-07T03:49:27;0.90;;;0.85;;
75218;SDS011;63801;49.414;19.474;2023-08-07T03:51:27;1.10;;;0.70;;
75218;SDS011;63801;49.414;19.474;2023-08-07T03:53:29;1.07;;;0.70;;
75218;SDS011;63801;49.414;19.474;2023-08-07T03:55:30;2.25;;;0.70;;
75218;SDS011;63801;49.414;19.474;2023-08-07T03:57:31;1.00;;;0.82;;
75218;SDS011;63801;49.414;19.474;2023-08-07T03:59:31;0.90;;;0.70;;
75218;SDS011;63801;49.414;19.474;2023-08-07T04:01:31;1.65;;;0.57;;
75218;SDS011;63801;49.414;19.474;2023-08-07T04:03:32;1.63;;;0.52;;
75218;SDS011;63801;49.414;19.474;2023-08-07T04:05:33;2.60;;;0.50;;
75218;SDS011;63801;49.414;19.474;2023-08-07T04:07:33;0.70;;;0.55;;
75218;SDS011;63801;49.414;19.474;2023-08-07T04:09:34;0.70;;;0.60;;
75218;SDS011;63801;49.414;19.474;2023-08-07T04:11:34;0.60;;;0.50;;
75218;SDS011;63801;49.414;19.474;2023-08-07T04:13:34;1.10;;;0.60;;
75218;SDS011;63801;49.414;19.474;2023-08-07T04:15:35;1.00;;;0.50;;
75218;SDS011;63801;49.414;19.474;2023-08-07T04:17:35;1.60;;;0.50;;
75218;SDS011;63801;49.414;19.474;2023-08-07T04:19:36;0.68;;;0.60;;
75218;SDS011;63801;49.414;19.474;2023-08-07T04:21:36;2.08;;;0.50;;
75218;SDS011;63801;49.414;19.474;2023-08-07T04:23:36;1.00;;;0.60;;
75218;SDS011;63801;49.414;19.474;2023-08-07T04:25:37;2.22;;;0.60;;
75218;SDS011;63801;49.414;19.474;2023-08-07T04:27:37;0.77;;;0.40;;
75218;SDS011;63801;49.414;19.474;2023-08-07T04:29:38;0.47;;;0.47;;
75218;SDS011;63801;49.414;19.474;2023-08-07T04:31:38;0.40;;;0.38;;
75218;SDS011;63801;49.414;19.474;2023-08-07T04:33:39;3.38;;;0.50;;
75218;SDS011;63801;49.414;19.474;2023-08-07T04:35:39;2.40;;;0.47;;
75218;SDS011;63801;49.414;19.474;2023-08-07T04:37:40;1.23;;;0.70;;
75218;SDS011;63801;49.414;19.474;2023-08-07T04:39:40;0.68;;;0.38;;
75218;SDS011;63801;49.414;19.474;2023-08-07T04:41:40;0.82;;;0.70;;
75218;SDS011;63801;49.414;19.474;2023-08-07T04:43:40;0.55;;;0.45;;
75218;SDS011;63801;49.414;19.474;2023-08-07T04:45:42;0.85;;;0.40;;
75218;SDS011;63801;49.414;19.474;2023-08-07T04:47:44;1.13;;;0.47;;
75218;SDS011;63801;49.414;19.474;2023-08-07T04:49:45;0.50;;;0.40;;
75218;SDS011;63801;49.414;19.474;2023-08-07T04:51:46;3.28;;;0.55;;
75218;SDS011;63801;49.414;19.474;2023-08-07T04:53:46;1.15;;;0.50;;
75218;SDS011;63801;49.414;19.474;2023-08-07T04:55:50;0.45;;;0.40;;
75218;SDS011;63801;49.414;19.474;2023-08-07T04:57:51;2.75;;;0.98;;
75218;SDS011;63801;49.414;19.474;2023-08-07T04:59:54;2.33;;;0.60;;
75218;SDS011;63801;49.414;19.474;2023-08-07T05:01:54;3.20;;;1.13;;
75218;SDS011;63801;49.414;19.474;2023-08-07T05:03:54;6.05;;;1.58;;
75218;SDS011;63801;49.414;19.474;2023-08-07T05:05:58;2.13;;;0.60;;
75218;SDS011;63801;49.414;19.474;2023-08-07T05:07:59;1.95;;;0.90;;
75218;SDS011;63801;49.414;19.474;2023-08-07T05:10:01;1.00;;;0.50;;
75218;SDS011;63801;49.414;19.474;2023-08-07T05:12:02;0.98;;;0.50;;
75218;SDS011;63801;49.414;19.474;2023-08-07T05:14:02;0.65;;;0.43;;
75218;SDS011;63801;49.414;19.474;2023-08-07T05:16:03;0.70;;;0.35;;
75218;SDS011;63801;49.414;19.474;2023-08-07T05:18:03;0.47;;;0.40;;
75218;SDS011;63801;49.414;19.474;2023-08-07T05:20:04;1.15;;;0.40;;
75218;SDS011;63801;49.414;19.474;2023-08-07T05:22:05;2.72;;;0.47;;
75218;SDS011;63801;49.414;19.474;2023-08-07T05:24:06;1.13;;;0.70;;
75218;SDS011;63801;49.414;19.474;2023-08-07T05:26:06;0.68;;;0.47;;
75218;SDS011;63801;49.414;19.474;2023-08-07T05:28:06;1.83;;;0.75;;
75218;SDS011;63801;49.414;19.474;2023-08-07T05:30:07;1.05;;;0.55;;
75218;SDS011;63801;49.414;19.474;2023-08-07T05:32:08;5.18;;;1.98;;
75218;SDS011;63801;49.414;19.474;2023-08-07T05:34:09;8.05;;;2.38;;
75218;SDS011;63801;49.414;19.474;2023-08-07T05:36:09;3.60;;;0.70;;
75218;SDS011;63801;49.414;19.474;2023-08-07T05:38:09;0.50;;;0.40;;
75218;SDS011;63801;49.414;19.474;2023-08-07T05:40:10;1.55;;;0.47;;
75218;SDS011;63801;49.414;19.474;2023-08-07T05:42:12;1.60;;;0.20;;
75218;SDS011;63801;49.414;19.474;2023-08-07T05:44:12;0.60;;;0.30;;
75218;SDS011;63801;49.414;19.474;2023-08-07T05:46:12;0.25;;;0.10;;
75218;SDS011;63801;49.414;19.474;2023-08-07T05:48:13;0.38;;;0.20;;
75218;SDS011;63801;49.414;19.474;2023-08-07T05:50:13;1.15;;;0.30;;
75218;SDS011;63801;49.414;19.474;2023-08-07T05:52:14;4.38;;;0.90;;
75218;SDS011;63801;49.414;19.474;2023-08-07T05:54:14;0.63;;;0.30;;
75218;SDS011;63801;49.414;19.474;2023-08-07T05:56:14;0.80;;;0.13;;
75218;SDS011;63801;49.414;19.474;2023-08-07T05:58:15;0.10;;;0.10;;
75218;SDS011;63801;49.414;19.474;2023-08-07T06:00:15;1.65;;;0.30;;
75218;SDS011;63801;49.414;19.474;2023-08-07T06:02:18;0.20;;;0.20;;
75218;SDS011;63801;49.414;19.474;2023-08-07T06:04:20;0.35;;;0.30;;
75218;SDS011;63801;49.414;19.474;2023-08-07T06:06:21;2.20;;;0.80;;
75218;SDS011;63801;49.414;19.474;2023-08-07T06:08:21;0.55;;;0.38;;
75218;SDS011;63801;49.414;19.474;2023-08-07T06:10:22;1.67;;;0.20;;
75218;SDS011;63801;49.414;19.474;2023-08-07T06:12:22;0.68;;;0.10;;
75218;SDS011;63801;49.414;19.474;2023-08-07T06:14:23;0.38;;;0.15;;
75218;SDS011;63801;49.414;19.474;2023-08-07T06:16:25;0.95;;;0.22;;
75218;SDS011;63801;49.414;19.474;2023-08-07T06:18:25;2.22;;;0.10;;
75218;SDS011;63801;49.414;19.474;2023-08-07T06:20:26;0.10;;;0.10;;
75218;SDS011;63801;49.414;19.474;2023-08-07T06:22:26;0.10;;;0.10;;
75218;SDS011;63801;49.414;19.474;2023-08-07T06:24:27;0.08;;;0.00;;
75218;SDS011;63801;49.414;19.474;2023-08-07T06:26:27;0.50;;;0.20;;
75218;SDS011;63801;49.414;19.474;2023-08-07T06:28:27;0.25;;;0.15;;
75218;SDS011;63801;49.414;19.474;2023-08-07T06:30:28;0.32;;;0.10;;
75218;SDS011;63801;49.414;19.474;2023-08-07T06:32:28;0.10;;;0.10;;
75218;SDS011;63801;49.414;19.474;2023-08-07T06:34:28;0.20;;;0.20;;
75218;SDS011;63801;49.414;19.474;2023-08-07T06:36:29;0.73;;;0.10;;
75218;SDS011;63801;49.414;19.474;2023-08-07T06:38:29;0.68;;;0.10;;
75218;SDS011;63801;49.414;19.474;2023-08-07T06:40:30;0.22;;;0.17;;
75218;SDS011;63801;49.414;19.474;2023-08-07T06:42:30;3.92;;;0.90;;
75218;SDS011;63801;49.414;19.474;2023-08-07T06:44:30;1.23;;;0.63;;
75218;SDS011;63801;49.414;19.474;2023-08-07T06:46:31;3.97;;;0.70;;
75218;SDS011;63801;49.414;19.474;2023-08-07T06:48:31;1.17;;;0.50;;
75218;SDS011;63801;49.414;19.474;2023-08-07T06:50:32;0.85;;;0.20;;
75218;SDS011;63801;49.414;19.474;2023-08-07T06:52:32;0.35;;;0.30;;
75218;SDS011;63801;49.414;19.474;2023-08-07T06:54:33;0.68;;;0.28;;
75218;SDS011;63801;49.414;19.474;2023-08-07T06:56:33;0.40;;;0.20;;
75218;SDS011;63801;49.414;19.474;2023-08-07T06:58:33;0.73;;;0.30;;
75218;SDS011;63801;49.414;19.474;2023-08-07T07:00:34;0.22;;;0.20;;
75218;SDS011;63801;49.414;19.474;2023-08-07T07:02:35;1.17;;;0.30;;
75218;SDS011;63801;49.414;19.474;2023-08-07T07:04:35;0.20;;;0.10;;
75218;SDS011;63801;49.414;19.474;2023-08-07T07:06:36;0.95;;;0.10;;
75218;SDS011;63801;49.414;19.474;2023-08-07T07:08:37;0.25;;;0.15;;
75218;SDS011;63801;49.414;19.474;2023-08-07T07:10:37;0.20;;;0.13;;
75218;SDS011;63801;49.414;19.474;2023-08-07T07:12:38;0.50;;;0.20;;
75218;SDS011;63801;49.414;19.474;2023-08-07T07:14:38;1.17;;;0.30;;
75218;SDS011;63801;49.414;19.474;2023-08-07T07:16:38;0.10;;;0.10;;
75218;SDS011;63801;49.414;19.474;2023-08-07T07:18:39;0.47;;;0.20;;
75218;SDS011;63801;49.414;19.474;2023-08-07T07:20:39;0.15;;;0.10;;
75218;SDS011;63801;49.414;19.474;2023-08-07T07:22:40;1.75;;;0.20;;
75218;SDS011;63801;49.414;19.474;2023-08-07T07:24:40;1.23;;;0.10;;
75218;SDS011;63801;49.414;19.474;2023-08-07T07:26:40;0.95;;;0.30;;
75218;SDS011;63801;49.414;19.474;2023-08-07T07:28:41;0.55;;;0.20;;
75218;SDS011;63801;49.414;19.474;2023-08-07T07:30:41;0.68;;;0.30;;
75218;SDS011;63801;49.414;19.474;2023-08-07T07:32:41;0.47;;;0.20;;
75218;SDS011;63801;49.414;19.474;2023-08-07T07:34:41;0.50;;;0.30;;
75218;SDS011;63801;49.414;19.474;2023-08-07T07:36:42;0.25;;;0.22;;
75218;SDS011;63801;49.414;19.474;2023-08-07T07:38:42;1.85;;;0.30;;
75218;SDS011;63801;49.414;19.474;2023-08-07T07:40:43;0.30;;;0.20;;
75218;SDS011;63801;49.414;19.474;2023-08-07T07:42:43;1.10;;;0.25;;
75218;SDS011;63801;49.414;19.474;2023-08-07T07:44:44;0.80;;;0.30;;
75218;SDS011;63801;49.414;19.474;2023-08-07T07:46:44;0.73;;;0.30;;
75218;SDS011;63801;49.414;19.474;2023-08-07T07:48:44;0.68;;;0.25;;
75218;SDS011;63801;49.414;19.474;2023-08-07T07:50:45;0.75;;;0.40;;
75218;SDS011;63801;49.414;19.474;2023-08-07T07:52:45;0.90;;;0.28;;
75218;SDS011;63801;49.414;19.474;2023-08-07T07:54:45;0.55;;;0.28;;
75218;SDS011;63801;49.414;19.474;2023-08-07T07:56:45;0.17;;;0.15;;
75218;SDS011;63801;49.414;19.474;2023-08-07T07:58:46;1.15;;;0.40;;
75218;SDS011;63801;49.414;19.474;2023-08-07T08:00:46;1.30;;;0.30;;
75218;SDS011;63801;49.414;19.474;2023-08-07T08:02:47;0.85;;;0.35;;
75218;SDS011;63801;49.414;19.474;2023-08-07T08:04:47;0.30;;;0.30;;
75218;SDS011;63801;49.414;19.474;2023-08-07T08:06:48;0.82;;;0.32;;
75218;SDS011;63801;49.414;19.474;2023-08-07T08:08:48;0.30;;;0.25;;
75218;SDS011;63801;49.414;19.474;2023-08-07T08:10:48;1.42;;;0.28;;
75218;SDS011;63801;49.414;19.474;2023-08-07T08:12:51;0.30;;;0.30;;
75218;SDS011;63801;49.414;19.474;2023-08-07T08:14:51;0.35;;;0.20;;
75218;SDS011;63801;49.414;19.474;2023-08-07T08:16:51;0.30;;;0.20;;
75218;SDS011;63801;49.414;19.474;2023-08-07T08:18:51;0.30;;;0.20;;
75218;SDS011;63801;49.414;19.474;2023-08-07T08:20:53;0.15;;;0.10;;
75218;SDS011;63801;49.414;19.474;2023-08-07T08:22:54;1.77;;;0.20;;
75218;SDS011;63801;49.414;19.474;2023-08-07T08:24:54;0.60;;;0.28;;
75218;SDS011;63801;49.414;19.474;2023-08-07T08:26:54;0.65;;;0.40;;
75218;SDS011;63801;49.414;19.474;2023-08-07T08:28:55;1.50;;;0.40;;
75218;SDS011;63801;49.414;19.474;2023-08-07T08:30:55;1.52;;;0.50;;
75218;SDS011;63801;49.414;19.474;2023-08-07T08:32:55;2.00;;;0.28;;
75218;SDS011;63801;49.414;19.474;2023-08-07T08:34:56;0.60;;;0.30;;
75218;SDS011;63801;49.414;19.474;2023-08-07T08:36:56;1.15;;;0.28;;
75218;SDS011;63801;49.414;19.474;2023-08-07T08:38:57;0.65;;;0.40;;
75218;SDS011;63801;49.414;19.474;2023-08-07T08:40:57;0.38;;;0.15;;
75218;SDS011;63801;49.414;19.474;2023-08-07T08:43:00;0.57;;;0.20;;
75218;SDS011;63801;49.414;19.474;2023-08-07T08:45:00;1.08;;;0.40;;
75218;SDS011;63801;49.414;19.474;2023-08-07T08:47:03;0.40;;;0.20;;
75218;SDS011;63801;49.414;19.474;2023-08-07T08:49:04;0.30;;;0.13;;
75218;SDS011;63801;49.414;19.474;2023-08-07T08:51:08;0.20;;;0.10;;
75218;SDS011;63801;49.414;19.474;2023-08-07T08:53:08;0.30;;;0.20;;
75218;SDS011;63801;49.414;19.474;2023-08-07T08:55:09;1.15;;;0.20;;
75218;SDS011;63801;49.414;19.474;2023-08-07T08:57:11;0.57;;;0.37;;
75218;SDS011;63801;49.414;19.474;2023-08-07T08:59:11;1.00;;;0.20;;
75218;SDS011;63801;49.414;19.474;2023-08-07T09:01:12;1.10;;;0.20;;
75218;SDS011;63801;49.414;19.474;2023-08-07T09:03:13;0.22;;;0.15;;
75218;SDS011;63801;49.414;19.474;2023-08-07T09:05:14;0.50;;;0.20;;
75218;SDS011;63801;49.414;19.474;2023-08-07T09:07:16;0.70;;;0.20;;
75218;SDS011;63801;49.414;19.474;2023-08-07T09:09:20;0.38;;;0.20;;
75218;SDS011;63801;49.414;19.474;2023-08-07T09:11:23;0.35;;;0.20;;
75218;SDS011;63801;49.414;19.474;2023-08-07T09:13:25;0.70;;;0.20;;
75218;SDS011;63801;49.414;19.474;2023-08-07T09:15:28;0.40;;;0.20;;
75218;SDS011;63801;49.414;19.474;2023-08-07T09:17:31;0.93;;;0.30;;
75218;SDS011;63801;49.414;19.474;2023-08-07T09:19:35;1.30;;;0.40;;
75218;SDS011;63801;49.414;19.474;2023-08-07T09:21:35;0.95;;;0.35;;
75218;SDS011;63801;49.414;19.474;2023-08-07T09:23:36;2.08;;;0.30;;
75218;SDS011;63801;49.414;19.474;2023-08-07T09:25:36;0.85;;;0.25;;
75218;SDS011;63801;49.414;19.474;2023-08-07T09:27:37;1.80;;;0.90;;
75218;SDS011;63801;49.414;19.474;2023-08-07T09:29:39;0.95;;;0.50;;
75218;SDS011;63801;49.414;19.474;2023-08-07T09:31:42;1.05;;;0.60;;
75218;SDS011;63801;49.414;19.474;2023-08-07T09:33:46;4.00;;;1.23;;
75218;SDS011;63801;49.414;19.474;2023-08-07T09:35:47;1.10;;;0.50;;
75218;SDS011;63801;49.414;19.474;2023-08-07T09:37:48;1.02;;;0.90;;
75218;SDS011;63801;49.414;19.474;2023-08-07T09:39:49;0.80;;;0.50;;
75218;SDS011;63801;49.414;19.474;2023-08-07T09:41:51;0.40;;;0.30;;
75218;SDS011;63801;49.414;19.474;2023-08-07T09:43:52;0.40;;;0.40;;
75218;SDS011;63801;49.414;19.474;2023-08-07T09:45:52;0.50;;;0.30;;
75218;SDS011;63801;49.414;19.474;2023-08-07T09:50:02;0.50;;;0.47;;
75218;SDS011;63801;49.414;19.474;2023-08-07T09:52:02;0.85;;;0.60;;
75218;SDS011;63801;49.414;19.474;2023-08-07T09:54:07;1.50;;;0.65;;
75218;SDS011;63801;49.414;19.474;2023-08-07T09:56:07;2.47;;;1.25;;
75218;SDS011;63801;49.414;19.474;2023-08-07T09:58:09;1.20;;;0.40;;
75218;SDS011;63801;49.414;19.474;2023-08-07T10:00:12;0.60;;;0.40;;
75218;SDS011;63801;49.414;19.474;2023-08-07T10:02:15;1.17;;;0.40;;
75218;SDS011;63801;49.414;19.474;2023-08-07T10:04:16;0.60;;;0.40;;
75218;SDS011;63801;49.414;19.474;2023-08-07T10:06:17;0.30;;;0.20;;
75218;SDS011;63801;49.414;19.474;2023-08-07T10:08:19;1.45;;;0.63;;
75218;SDS011;63801;49.414;19.474;2023-08-07T10:10:21;0.30;;;0.30;;
75218;SDS011;63801;49.414;19.474;2023-08-07T10:12:21;0.80;;;0.30;;
75218;SDS011;63801;49.414;19.474;2023-08-07T10:14:22;0.85;;;0.50;;
75218;SDS011;63801;49.414;19.474;2023-08-07T10:16:22;0.20;;;0.20;;
75218;SDS011;63801;49.414;19.474;2023-08-07T10:18:23;0.40;;;0.30;;
75218;SDS011;63801;49.414;19.474;2023-08-07T10:20:27;0.40;;;0.35;;
75218;SDS011;63801;49.414;19.474;2023-08-07T10:22:29;0.68;;;0.40;;
75218;SDS011;63801;49.414;19.474;2023-08-07T10:24:31;1.15;;;0.35;;
75218;SDS011;63801;49.414;19.474;2023-08-07T10:26:39;0.20;;;0.20;;
75218;SDS011;63801;49.414;19.474;2023-08-07T10:28:45;0.47;;;0.40;;
75218;SDS011;63801;49.414;19.474;2023-08-07T10:30:46;2.80;;;0.20;;
75218;SDS011;63801;49.414;19.474;2023-08-07T10:32:48;5.88;;;2.97;;
75218;SDS011;63801;49.414;19.474;2023-08-07T10:34:49;0.28;;;0.22;;
75218;SDS011;63801;49.414;19.474;2023-08-07T10:36:50;0.45;;;0.30;;
75218;SDS011;63801;49.414;19.474;2023-08-07T10:38:50;1.42;;;0.38;;
75218;SDS011;63801;49.414;19.474;2023-08-07T10:41:10;1.77;;;0.20;;
75218;SDS011;63801;49.414;19.474;2023-08-07T10:43:13;1.20;;;0.40;;
75218;SDS011;63801;49.414;19.474;2023-08-07T10:45:18;0.30;;;0.30;;
75218;SDS011;63801;49.414;19.474;2023-08-07T10:47:33;0.50;;;0.40;;
75218;SDS011;63801;49.414;19.474;2023-08-07T10:49:38;0.25;;;0.20;;
75218;SDS011;63801;49.414;19.474;2023-08-07T10:51:40;0.88;;;0.50;;
75218;SDS011;63801;49.414;19.474;2023-08-07T10:53:41;1.17;;;0.63;;
75218;SDS011;63801;49.414;19.474;2023-08-07T10:55:47;0.98;;;0.70;;
75218;SDS011;63801;49.414;19.474;2023-08-07T10:57:48;0.73;;;0.52;;
75218;SDS011;63801;49.414;19.474;2023-08-07T10:59:49;1.02;;;0.60;;
75218;SDS011;63801;49.414;19.474;2023-08-07T11:01:55;1.08;;;0.70;;
75218;SDS011;63801;49.414;19.474;2023-08-07T11:05:57;1.60;;;0.80;;
75218;SDS011;63801;49.414;19.474;2023-08-07T11:07:58;1.95;;;0.60;;
75218;SDS011;63801;49.414;19.474;2023-08-07T11:09:59;1.05;;;0.60;;
75218;SDS011;63801;49.414;19.474;2023-08-07T11:11:59;2.80;;;0.93;;
75218;SDS011;63801;49.414;19.474;2023-08-07T11:13:59;6.28;;;3.40;;
75218;SDS011;63801;49.414;19.474;2023-08-07T11:16:01;1.38;;;0.70;;
75218;SDS011;63801;49.414;19.474;2023-08-07T11:18:02;0.60;;;0.35;;
75218;SDS011;63801;49.414;19.474;2023-08-07T11:20:03;0.47;;;0.22;;
75218;SDS011;63801;49.414;19.474;2023-08-07T11:22:04;0.55;;;0.35;;
75218;SDS011;63801;49.414;19.474;2023-08-07T11:24:05;1.00;;;0.30;;
75218;SDS011;63801;49.414;19.474;2023-08-07T11:26:05;1.27;;;0.38;;
75218;SDS011;63801;49.414;19.474;2023-08-07T11:28:06;5.00;;;2.58;;
75218;SDS011;63801;49.414;19.474;2023-08-07T11:30:10;0.50;;;0.40;;
75218;SDS011;63801;49.414;19.474;2023-08-07T11:32:11;0.60;;;0.47;;
75218;SDS011;63801;49.414;19.474;2023-08-07T11:34:13;0.80;;;0.60;;
75218;SDS011;63801;49.414;19.474;2023-08-07T11:36:14;0.63;;;0.55;;
75218;SDS011;63801;49.414;19.474;2023-08-07T11:38:33;0.70;;;0.50;;
75218;SDS011;63801;49.414;19.474;2023-08-07T11:40:35;0.52;;;0.50;;
75218;SDS011;63801;49.414;19.474;2023-08-07T11:42:35;0.20;;;0.20;;
75218;SDS011;63801;49.414;19.474;2023-08-07T11:44:36;0.30;;;0.30;;
75218;SDS011;63801;49.414;19.474;2023-08-07T11:46:36;1.42;;;0.60;;
75218;SDS011;63801;49.414;19.474;2023-08-07T11:48:37;0.47;;;0.30;;
75218;SDS011;63801;49.414;19.474;2023-08-07T11:50:39;0.45;;;0.28;;
75218;SDS011;63801;49.414;19.474;2023-08-07T11:52:39;0.60;;;0.40;;
75218;SDS011;63801;49.414;19.474;2023-08-07T11:54:40;0.40;;;0.22;;
75218;SDS011;63801;49.414;19.474;2023-08-07T11:56:40;0.30;;;0.30;;
75218;SDS011;63801;49.414;19.474;2023-08-07T11:58:43;0.22;;;0.20;;
75218;SDS011;63801;49.414;19.474;2023-08-07T12:00:46;0.60;;;0.20;;
75218;SDS011;63801;49.414;19.474;2023-08-07T12:02:46;0.65;;;0.20;;
75218;SDS011;63801;49.414;19.474;2023-08-07T12:04:46;0.35;;;0.20;;
75218;SDS011;63801;49.414;19.474;2023-08-07T12:06:53;0.13;;;0.13;;